Terminal Aerodrome Forecast
Issued by NWS Raleigh/Durham, NC

Home | Current Version | Previous Version | Text Only | Print | Product List | Glossary On
Versions: 1 2 3 4 5 6 7 8 9 10 11 12 13
000
FTUS42 KRAH 220540
TAFRDU
TAF
KRDU 220540Z 2206/2306 19003KT P6SM FEW080 SCT250
      TEMPO 2211/2213 00000KT 3SM BR
     FM222200 18006KT P6SM FEW025 BKN035 BKN250
     FM230300 18005KT P6SM BKN015 OVC025 WS015/19040KT=

USA.gov is the U.S. government's official web portal to all federal, state and local government web resources and services.